createdAt,value
2018-07-14T00:00:36.770Z,0
2018-07-14T00:01:38.078Z,0
2018-07-14T00:02:39.401Z,0
2018-07-14T00:03:40.712Z,0
2018-07-14T00:04:42.038Z,0
2018-07-14T00:05:43.368Z,0
2018-07-14T00:06:44.790Z,0
2018-07-14T00:07:46.194Z,0
2018-07-14T00:08:47.540Z,0
2018-07-14T00:09:48.910Z,0
2018-07-14T00:10:50.317Z,0
2018-07-14T00:11:51.632Z,0
2018-07-14T00:12:52.957Z,0
2018-07-14T00:13:54.270Z,0
2018-07-14T00:14:55.584Z,0
2018-07-14T00:15:56.900Z,0
2018-07-14T00:16:58.213Z,0
2018-07-14T00:17:59.524Z,0
2018-07-14T00:19:00.845Z,0
2018-07-14T00:20:02.165Z,0
2018-07-14T00:21:03.477Z,0
2018-07-14T00:22:04.789Z,0
2018-07-14T00:23:06.104Z,0
2018-07-14T00:24:07.409Z,0
2018-07-14T00:25:08.727Z,0
2018-07-14T00:26:10.040Z,0
2018-07-14T00:27:11.353Z,0
2018-07-14T00:28:12.673Z,0
2018-07-14T00:29:14.013Z,0
2018-07-14T00:30:15.363Z,0
2018-07-14T00:31:16.694Z,0
2018-07-14T00:32:18.049Z,0
2018-07-14T00:33:19.410Z,0
2018-07-14T00:34:20.781Z,0
2018-07-14T00:35:22.108Z,0
2018-07-14T00:36:23.415Z,0
2018-07-14T00:37:24.734Z,0
2018-07-14T00:38:26.039Z,0
2018-07-14T00:39:27.358Z,0
2018-07-14T00:40:28.679Z,0
2018-07-14T00:41:29.989Z,0
2018-07-14T00:42:31.308Z,0
2018-07-14T00:43:32.615Z,0
2018-07-14T00:44:33.924Z,0
2018-07-14T00:45:35.243Z,0
2018-07-14T00:46:36.537Z,0
2018-07-14T00:47:37.849Z,0
2018-07-14T00:48:39.163Z,0
2018-07-14T00:49:40.478Z,0
2018-07-14T00:50:41.797Z,0
2018-07-14T00:51:43.095Z,0
2018-07-14T00:52:44.463Z,0
2018-07-14T00:53:45.763Z,0
2018-07-14T00:54:47.090Z,0
2018-07-14T00:55:48.427Z,0
2018-07-14T00:56:49.735Z,0
2018-07-14T00:57:51.069Z,0
2018-07-14T00:58:52.404Z,0
2018-07-14T00:59:53.717Z,0
2018-07-14T01:00:55.031Z,0
2018-07-14T01:01:56.364Z,0
2018-07-14T01:02:57.680Z,0
2018-07-14T01:03:58.989Z,0
2018-07-14T01:05:00.300Z,0
2018-07-14T01:06:01.616Z,0
2018-07-14T01:07:02.919Z,0
2018-07-14T01:08:04.230Z,0
2018-07-14T01:09:05.544Z,0
2018-07-14T01:10:06.869Z,0
2018-07-14T01:11:08.179Z,0
2018-07-14T01:12:09.490Z,0
2018-07-14T01:13:10.808Z,0
2018-07-14T01:14:12.114Z,0
2018-07-14T01:15:13.461Z,0
2018-07-14T01:16:14.826Z,0
2018-07-14T01:17:16.145Z,0
2018-07-14T01:18:17.471Z,0
2018-07-14T01:19:18.785Z,0
2018-07-14T01:20:20.113Z,0
2018-07-14T01:21:21.429Z,0
2018-07-14T01:22:22.747Z,0
2018-07-14T01:23:24.065Z,0
2018-07-14T01:24:25.376Z,0
2018-07-14T01:25:26.697Z,0
2018-07-14T01:26:28.005Z,0
2018-07-14T01:27:29.312Z,0
2018-07-14T01:28:30.619Z,0
2018-07-14T01:29:31.929Z,0
2018-07-14T01:30:33.241Z,0
2018-07-14T01:31:34.556Z,0
2018-07-14T01:32:35.870Z,0
2018-07-14T01:33:37.185Z,0
2018-07-14T01:34:38.501Z,0
2018-07-14T01:35:39.831Z,0
2018-07-14T01:36:41.140Z,0
2018-07-14T01:37:42.451Z,0
2018-07-14T01:38:43.778Z,0
2018-07-14T01:39:45.106Z,0
2018-07-14T01:40:46.457Z,0
2018-07-14T01:41:47.787Z,0
2018-07-14T01:42:49.115Z,0
2018-07-14T01:43:50.432Z,0
2018-07-14T01:44:51.749Z,0
2018-07-14T01:45:53.071Z,0
2018-07-14T01:46:54.386Z,0
2018-07-14T01:47:55.704Z,0
2018-07-14T01:48:57.011Z,0
2018-07-14T01:49:58.319Z,0
2018-07-14T01:50:59.635Z,0
2018-07-14T01:52:00.951Z,0
2018-07-14T01:53:02.261Z,0
2018-07-14T01:54:03.565Z,0
2018-07-14T01:55:04.879Z,0
2018-07-14T01:56:06.194Z,0
2018-07-14T01:57:07.509Z,0
2018-07-14T01:58:08.815Z,0
2018-07-14T01:59:10.130Z,0
2018-07-14T02:00:11.454Z,0
2018-07-14T02:01:12.761Z,0
2018-07-14T02:02:14.130Z,0
2018-07-14T02:03:15.480Z,0
2018-07-14T02:04:16.816Z,0
2018-07-14T02:05:18.164Z,0
2018-07-14T02:06:19.622Z,0
2018-07-14T02:07:20.954Z,0
2018-07-14T02:08:22.251Z,0
2018-07-14T02:09:23.566Z,0
2018-07-14T02:10:24.880Z,0
2018-07-14T02:11:26.197Z,0
2018-07-14T02:12:27.511Z,0
2018-07-14T02:13:28.821Z,0
2018-07-14T02:14:30.134Z,0
2018-07-14T02:15:31.440Z,0
2018-07-14T02:16:32.749Z,0
2018-07-14T02:17:34.060Z,0
2018-07-14T02:18:35.371Z,0
2018-07-14T02:19:36.695Z,0
2018-07-14T02:20:38.005Z,0
2018-07-14T02:21:39.314Z,0
2018-07-14T02:22:40.620Z,0
2018-07-14T02:23:41.940Z,0
2018-07-14T02:24:43.977Z,0
2018-07-14T02:25:45.301Z,0
2018-07-14T02:26:46.636Z,0
2018-07-14T02:27:47.986Z,0
2018-07-14T02:28:49.310Z,0
2018-07-14T02:29:50.660Z,0
2018-07-14T02:30:51.971Z,0
2018-07-14T02:31:53.271Z,0
2018-07-14T02:32:54.596Z,0
2018-07-14T02:33:55.916Z,0
2018-07-14T02:34:57.226Z,0
2018-07-14T02:35:58.539Z,0
2018-07-14T02:36:59.848Z,0
2018-07-14T02:38:01.166Z,0
2018-07-14T02:39:02.486Z,0
2018-07-14T02:40:03.785Z,0
2018-07-14T02:41:05.103Z,0
2018-07-14T02:42:06.418Z,0
2018-07-14T02:43:07.722Z,0
2018-07-14T02:44:09.027Z,0
2018-07-14T02:45:10.341Z,0
2018-07-14T02:46:11.652Z,0
2018-07-14T02:47:12.971Z,0
2018-07-14T02:48:14.345Z,0
2018-07-14T02:49:15.676Z,0
2018-07-14T02:50:16.972Z,0
2018-07-14T02:51:18.321Z,0
2018-07-14T02:52:19.665Z,0
2018-07-14T02:53:20.991Z,0
2018-07-14T02:54:22.295Z,0
2018-07-14T02:55:23.615Z,0
2018-07-14T02:56:24.933Z,0
2018-07-14T02:57:26.245Z,0
2018-07-14T02:58:27.561Z,0
2018-07-14T02:59:28.866Z,0
2018-07-14T03:00:30.182Z,0
2018-07-14T03:01:31.488Z,0
2018-07-14T03:02:32.801Z,0
2018-07-14T03:03:34.123Z,0
2018-07-14T03:04:35.441Z,0
2018-07-14T03:05:36.751Z,0
2018-07-14T03:06:38.051Z,0
2018-07-14T03:07:39.372Z,0
2018-07-14T03:08:40.684Z,0
2018-07-14T03:09:41.996Z,0
2018-07-14T03:10:43.428Z,0
2018-07-14T03:11:44.749Z,0
2018-07-14T03:12:46.124Z,0
2018-07-14T03:13:47.424Z,0
2018-07-14T03:14:48.751Z,0
2018-07-14T03:15:50.069Z,0
2018-07-14T03:16:51.377Z,0
2018-07-14T03:17:52.691Z,0
2018-07-14T03:18:53.996Z,0
2018-07-14T03:19:55.315Z,0
2018-07-14T03:20:56.622Z,0
2018-07-14T03:21:57.931Z,5
2018-07-14T03:22:59.251Z,5
2018-07-14T03:24:00.558Z,5
2018-07-14T03:25:01.876Z,5
2018-07-14T03:26:03.192Z,5
2018-07-14T03:27:04.503Z,5
2018-07-14T03:28:05.822Z,5
2018-07-14T03:29:07.176Z,11
2018-07-14T03:30:08.447Z,11
2018-07-14T03:31:09.757Z,11
2018-07-14T03:32:11.032Z,11
2018-07-14T03:33:12.381Z,11
2018-07-14T03:34:13.707Z,16
2018-07-14T03:35:15.032Z,16
2018-07-14T03:36:16.366Z,16
2018-07-14T03:37:17.728Z,16
2018-07-14T03:38:19.042Z,22
2018-07-14T03:39:20.347Z,22
2018-07-14T03:40:21.661Z,22
2018-07-14T03:41:22.983Z,22
2018-07-14T03:42:24.293Z,28
2018-07-14T03:43:25.617Z,28
2018-07-14T03:44:26.921Z,28
2018-07-14T03:45:28.248Z,33
2018-07-14T03:46:29.562Z,33
2018-07-14T03:47:30.882Z,33
2018-07-14T03:48:32.199Z,39
2018-07-14T03:49:33.509Z,39
2018-07-14T03:50:34.823Z,45
2018-07-14T03:51:36.308Z,45
2018-07-14T03:52:37.613Z,45
2018-07-14T03:53:38.936Z,50
2018-07-14T03:54:40.242Z,50
2018-07-14T03:55:41.566Z,50
2018-07-14T03:56:42.880Z,56
2018-07-14T03:57:44.203Z,56
2018-07-14T03:58:45.568Z,61
2018-07-14T03:59:46.884Z,61
2018-07-14T04:00:48.207Z,67
2018-07-14T04:01:49.549Z,67
2018-07-14T04:02:50.868Z,73
2018-07-14T04:03:52.182Z,73
2018-07-14T04:04:53.489Z,78
2018-07-14T04:05:54.816Z,78
2018-07-14T04:06:56.118Z,84
2018-07-14T04:07:57.433Z,84
2018-07-14T04:08:58.753Z,90
2018-07-14T04:10:00.061Z,95
2018-07-14T04:11:01.373Z,95
2018-07-14T04:12:02.688Z,101
2018-07-14T04:13:04.013Z,106
2018-07-14T04:14:05.328Z,112
2018-07-14T04:15:06.632Z,112
2018-07-14T04:16:07.958Z,112
2018-07-14T04:17:09.282Z,112
2018-07-14T04:18:10.598Z,112
2018-07-14T04:19:11.919Z,118
2018-07-14T04:20:13.272Z,118
2018-07-14T04:21:14.607Z,123
2018-07-14T04:22:15.928Z,123
2018-07-14T04:23:17.250Z,129
2018-07-14T04:24:18.593Z,135
2018-07-14T04:25:19.932Z,140
2018-07-14T04:26:21.287Z,146
2018-07-14T04:27:22.603Z,151
2018-07-14T04:28:23.917Z,157
2018-07-14T04:29:25.233Z,163
2018-07-14T04:30:26.561Z,163
2018-07-14T04:31:27.874Z,168
2018-07-14T04:32:29.187Z,174
2018-07-14T04:33:30.515Z,180
2018-07-14T04:34:31.834Z,180
2018-07-14T04:35:33.148Z,185
2018-07-14T04:36:34.458Z,185
2018-07-14T04:37:35.779Z,185
2018-07-14T04:38:37.100Z,185
2018-07-14T04:39:38.418Z,185
2018-07-14T04:40:39.727Z,191
2018-07-14T04:41:41.039Z,191
2018-07-14T04:42:42.362Z,191
2018-07-14T04:43:43.702Z,191
2018-07-14T04:44:45.074Z,191
2018-07-14T04:45:46.419Z,202
2018-07-14T04:46:47.749Z,196
2018-07-14T04:47:49.099Z,196
2018-07-14T04:48:50.417Z,196
2018-07-14T04:49:51.734Z,196
2018-07-14T04:50:53.055Z,196
2018-07-14T04:51:54.382Z,202
2018-07-14T04:52:55.704Z,202
2018-07-14T04:53:57.021Z,202
2018-07-14T04:54:58.339Z,208
2018-07-14T04:55:59.650Z,202
2018-07-14T04:57:00.968Z,202
2018-07-14T04:58:02.299Z,208
2018-07-14T04:59:03.618Z,219
2018-07-14T05:00:04.930Z,225
2018-07-14T05:01:06.243Z,230
2018-07-14T05:02:07.559Z,225
2018-07-14T05:03:08.875Z,230
2018-07-14T05:04:10.199Z,236
2018-07-14T05:05:11.520Z,241
2018-07-14T05:06:12.851Z,247
2018-07-14T05:07:14.172Z,253
2018-07-14T05:08:15.494Z,258
2018-07-14T05:09:16.885Z,270
2018-07-14T05:10:18.210Z,275
2018-07-14T05:11:19.534Z,281
2018-07-14T05:12:20.889Z,286
2018-07-14T05:13:22.218Z,292
2018-07-14T05:14:23.529Z,298
2018-07-14T05:15:24.843Z,303
2018-07-14T05:16:26.161Z,303
2018-07-14T05:17:27.478Z,303
2018-07-14T05:18:28.829Z,303
2018-07-14T05:19:30.152Z,303
2018-07-14T05:20:31.478Z,309
2018-07-14T05:21:32.790Z,303
2018-07-14T05:22:34.103Z,303
2018-07-14T05:23:35.423Z,303
2018-07-14T05:24:36.748Z,309
2018-07-14T05:25:38.199Z,298
2018-07-14T05:26:39.529Z,298
2018-07-14T05:27:40.843Z,298
2018-07-14T05:28:42.263Z,303
2018-07-14T05:29:43.438Z,309
2018-07-14T05:30:44.783Z,309
2018-07-14T05:31:46.137Z,315
2018-07-14T05:32:47.483Z,320
2018-07-14T05:33:49.104Z,320
2018-07-14T05:34:50.503Z,326
2018-07-14T05:35:51.874Z,331
2018-07-14T05:36:53.193Z,337
2018-07-14T05:37:54.509Z,348
2018-07-14T05:38:55.822Z,360
2018-07-14T05:39:57.143Z,376
2018-07-14T05:40:58.474Z,382
2018-07-14T05:41:59.797Z,393
2018-07-14T05:43:01.108Z,405
2018-07-14T05:44:02.468Z,416
2018-07-14T05:45:03.748Z,433
2018-07-14T05:46:05.077Z,461
2018-07-14T05:47:06.389Z,646
2018-07-14T05:48:07.722Z,675
2018-07-14T05:49:09.052Z,601
2018-07-14T05:50:10.367Z,551
2018-07-14T05:51:11.710Z,500
2018-07-14T05:52:13.037Z,500
2018-07-14T05:53:14.383Z,500
2018-07-14T05:54:15.715Z,511
2018-07-14T05:55:17.083Z,618
2018-07-14T05:56:18.413Z,641
2018-07-14T05:57:19.737Z,725
2018-07-14T05:58:21.058Z,838
2018-07-14T05:59:22.379Z,843
2018-07-14T06:00:23.700Z,900
2018-07-14T06:01:25.049Z,900
2018-07-14T06:02:26.363Z,945
2018-07-14T06:03:27.682Z,1012
2018-07-14T06:04:29.003Z,967
2018-07-14T06:05:30.338Z,978
2018-07-14T06:06:31.659Z,1023
2018-07-14T06:07:32.982Z,1068
2018-07-14T06:08:34.299Z,1085
2018-07-14T06:09:35.633Z,1074
2018-07-14T06:10:36.953Z,1085
2018-07-14T06:11:38.277Z,1085
2018-07-14T06:12:39.610Z,1085
2018-07-14T06:13:40.945Z,1096
2018-07-14T06:14:42.270Z,1119
2018-07-14T06:15:44.433Z,1119
2018-07-14T06:16:45.781Z,1119
2018-07-14T06:17:47.826Z,1113
2018-07-14T06:18:49.222Z,1130
2018-07-14T06:19:50.545Z,1141
2018-07-14T06:20:51.869Z,703
2018-07-14T06:21:53.203Z,1113
2018-07-14T06:22:54.547Z,781
2018-07-14T06:23:55.869Z,1305
2018-07-14T06:24:57.200Z,770
2018-07-14T06:25:58.523Z,765
2018-07-14T06:26:59.843Z,691
2018-07-14T06:28:01.166Z,669
2018-07-14T06:29:02.517Z,652
2018-07-14T06:30:03.849Z,658
2018-07-14T06:31:05.174Z,663
2018-07-14T06:32:06.535Z,646
2018-07-14T06:33:07.788Z,646
2018-07-14T06:34:09.115Z,753
2018-07-14T06:35:10.443Z,680
2018-07-14T06:36:11.779Z,630
2018-07-14T06:37:13.105Z,630
2018-07-14T06:38:14.495Z,641
2018-07-14T06:39:15.932Z,646
2018-07-14T06:40:17.278Z,663
2018-07-14T06:41:18.613Z,675
2018-07-14T06:42:20.018Z,691
2018-07-14T06:43:21.338Z,888
2018-07-14T06:44:22.669Z,697
2018-07-14T06:45:23.990Z,691
2018-07-14T06:46:25.325Z,708
2018-07-14T06:47:26.655Z,720
2018-07-14T06:48:27.986Z,736
2018-07-14T06:49:29.318Z,759
2018-07-14T06:50:30.654Z,776
2018-07-14T06:51:32.016Z,793
2018-07-14T06:52:33.295Z,866
2018-07-14T06:53:34.634Z,1265
2018-07-14T06:54:35.965Z,1372
2018-07-14T06:55:37.289Z,1130
2018-07-14T06:56:38.621Z,1518
2018-07-14T06:57:39.944Z,973
2018-07-14T06:58:41.264Z,1271
2018-07-14T06:59:42.594Z,900
2018-07-14T07:00:43.939Z,1366
2018-07-14T07:01:45.304Z,1383
2018-07-14T07:02:46.665Z,990
2018-07-14T07:03:48.037Z,883
2018-07-14T07:04:49.405Z,1456
2018-07-14T07:05:50.725Z,1057
2018-07-14T07:06:52.053Z,900
2018-07-14T07:07:53.733Z,978
2018-07-14T07:08:55.055Z,1951
2018-07-14T07:09:56.400Z,1968
2018-07-14T07:10:57.728Z,1591
2018-07-14T07:11:59.048Z,1912
2018-07-14T07:13:00.371Z,1096
2018-07-14T07:14:01.706Z,1220
2018-07-14T07:15:03.044Z,1479
2018-07-14T07:16:04.369Z,2036
2018-07-14T07:17:05.695Z,1181
2018-07-14T07:18:07.031Z,1141
2018-07-14T07:19:08.378Z,1383
2018-07-14T07:20:09.720Z,2137
2018-07-14T07:21:11.049Z,1350
2018-07-14T07:22:12.376Z,1203
2018-07-14T07:23:13.787Z,1080
2018-07-14T07:24:15.230Z,1181
2018-07-14T07:25:18.400Z,1074
2018-07-14T07:26:19.885Z,1726
2018-07-14T07:27:21.301Z,1254
2018-07-14T07:28:22.664Z,1828
2018-07-14T07:29:23.989Z,1192
2018-07-14T07:30:25.330Z,1321
2018-07-14T07:31:26.656Z,1333
2018-07-14T07:32:27.989Z,1732
2018-07-14T07:33:29.321Z,1102
2018-07-14T07:34:30.678Z,1085
2018-07-14T07:35:31.985Z,1113
2018-07-14T07:36:33.314Z,1130
2018-07-14T07:37:34.646Z,1980
2018-07-14T07:38:35.990Z,2244
2018-07-14T07:39:37.327Z,1181
2018-07-14T07:40:38.653Z,1395
2018-07-14T07:41:39.979Z,1681
2018-07-14T07:42:41.319Z,1411
2018-07-14T07:43:42.644Z,1507
2018-07-14T07:44:44.014Z,1912
2018-07-14T07:45:45.554Z,1231
2018-07-14T07:46:46.942Z,1198
2018-07-14T07:47:48.416Z,1265
2018-07-14T07:48:49.901Z,1777
2018-07-14T07:49:51.235Z,2413
2018-07-14T07:50:52.576Z,1901
2018-07-14T07:51:53.915Z,1282
2018-07-14T07:52:55.254Z,1856
2018-07-14T07:53:56.586Z,2086
2018-07-14T07:54:57.920Z,1648
2018-07-14T07:55:59.256Z,1395
2018-07-14T07:57:00.574Z,1265
2018-07-14T07:58:01.925Z,1338
2018-07-14T07:59:03.307Z,1175
2018-07-14T08:00:04.595Z,1192
2018-07-14T08:01:05.923Z,1355
2018-07-14T08:02:07.254Z,1260
2018-07-14T08:03:08.580Z,1237
2018-07-14T08:04:09.908Z,1586
2018-07-14T08:05:11.244Z,1231
2018-07-14T08:06:12.577Z,1186
2018-07-14T08:07:13.935Z,1192
2018-07-14T08:08:15.303Z,1198
2018-07-14T08:09:16.669Z,1164
2018-07-14T08:10:18.024Z,1113
2018-07-14T08:11:19.360Z,1074
2018-07-14T08:12:20.729Z,1051
2018-07-14T08:13:22.054Z,1018
2018-07-14T08:14:23.374Z,1006
2018-07-14T08:15:24.722Z,1012
2018-07-14T08:16:27.420Z,1231
2018-07-14T08:17:28.796Z,1006
2018-07-14T08:18:30.119Z,995
2018-07-14T08:19:31.534Z,1372
2018-07-14T08:20:32.985Z,1029
2018-07-14T08:21:34.403Z,1035
2018-07-14T08:22:35.732Z,1051
2018-07-14T08:23:37.031Z,1080
2018-07-14T08:24:38.395Z,1147
2018-07-14T08:25:39.724Z,1957
2018-07-14T08:26:41.054Z,2475
2018-07-14T08:27:42.379Z,2739
2018-07-14T08:28:43.782Z,2818
2018-07-14T08:29:45.168Z,1636
2018-07-14T08:30:46.821Z,1248
2018-07-14T08:31:48.239Z,2812
2018-07-14T08:32:49.569Z,2773
2018-07-14T08:33:50.901Z,2756
2018-07-14T08:34:52.241Z,2750
2018-07-14T08:35:53.577Z,2778
2018-07-14T08:36:54.907Z,2784
2018-07-14T08:37:56.287Z,2739
2018-07-14T08:38:57.569Z,2705
2018-07-14T08:39:58.906Z,2716
2018-07-14T08:41:00.230Z,2773
2018-07-14T08:42:01.586Z,2767
2018-07-14T08:43:02.920Z,2790
2018-07-14T08:44:04.260Z,2795
2018-07-14T08:45:05.591Z,2767
2018-07-14T08:46:06.930Z,2745
2018-07-14T08:47:08.261Z,2683
2018-07-14T08:48:09.600Z,2716
2018-07-14T08:49:10.943Z,2790
2018-07-14T08:50:12.270Z,2835
2018-07-14T08:51:13.733Z,2925
2018-07-14T08:52:15.028Z,2953
2018-07-14T08:53:16.541Z,2964
2018-07-14T08:54:17.910Z,2880
2018-07-14T08:55:19.309Z,2835
2018-07-14T08:56:20.686Z,2863
2018-07-14T08:57:22.036Z,2863
2018-07-14T08:58:23.379Z,2868
2018-07-14T08:59:24.721Z,2868
2018-07-14T09:00:26.065Z,2953
2018-07-14T09:01:27.397Z,2891
2018-07-14T09:02:28.740Z,2880
2018-07-14T09:03:31.194Z,2953
2018-07-14T09:04:32.367Z,2953
2018-07-14T09:05:33.950Z,2930
2018-07-14T09:06:35.257Z,2936
2018-07-14T09:07:36.609Z,2941
2018-07-14T09:08:37.941Z,2936
2018-07-14T09:09:39.288Z,3082
2018-07-14T09:10:40.614Z,3026
2018-07-14T09:11:41.965Z,2958
2018-07-14T09:12:43.405Z,2925
2018-07-14T09:13:44.842Z,2964
2018-07-14T09:14:46.574Z,3026
2018-07-14T09:15:47.957Z,3031
2018-07-14T09:16:49.361Z,2970
2018-07-14T09:17:50.736Z,3015
2018-07-14T09:18:52.086Z,3026
2018-07-14T09:19:53.431Z,2975
2018-07-14T09:20:54.770Z,3031
2018-07-14T09:21:56.112Z,3093
2018-07-14T09:22:57.450Z,3071
2018-07-14T09:23:58.806Z,3088
2018-07-14T09:25:00.146Z,3093
2018-07-14T09:26:01.493Z,3026
2018-07-14T09:27:02.861Z,3065
2018-07-14T09:28:04.203Z,3037
2018-07-14T09:29:05.547Z,3138
2018-07-14T09:30:06.887Z,3211
2018-07-14T09:31:08.233Z,3161
2018-07-14T09:32:09.582Z,3144
2018-07-14T09:33:10.917Z,3183
2018-07-14T09:34:12.293Z,3200
2018-07-14T09:35:13.646Z,3189
2018-07-14T09:36:15.012Z,3099
2018-07-14T09:37:16.382Z,3116
2018-07-14T09:38:17.724Z,3161
2018-07-14T09:39:19.072Z,3161
2018-07-14T09:40:20.408Z,3116
2018-07-14T09:41:21.762Z,3054
2018-07-14T09:42:23.096Z,3031
2018-07-14T09:43:24.444Z,3099
2018-07-14T09:44:25.781Z,3110
2018-07-14T09:45:27.132Z,3172
2018-07-14T09:46:28.471Z,3223
2018-07-14T09:47:29.801Z,3138
2018-07-14T09:48:31.151Z,3206
2018-07-14T09:49:32.493Z,3043
2018-07-14T09:50:33.838Z,2295
2018-07-14T09:51:35.187Z,2053
2018-07-14T09:52:36.541Z,2863
2018-07-14T09:53:37.877Z,3273
2018-07-14T09:54:39.263Z,3144
2018-07-14T09:55:40.597Z,3150
2018-07-14T09:56:41.946Z,3268
2018-07-14T09:57:43.282Z,3273
2018-07-14T09:58:44.637Z,3240
2018-07-14T09:59:46.017Z,3301
2018-07-14T10:00:47.405Z,3363
2018-07-14T10:01:48.768Z,3318
2018-07-14T10:02:50.145Z,3262
2018-07-14T10:03:51.526Z,3296
2018-07-14T10:04:52.872Z,3285
2018-07-14T10:05:54.227Z,3324
2018-07-14T10:06:55.568Z,3358
2018-07-14T10:07:56.942Z,3313
2018-07-14T10:08:58.302Z,3369
2018-07-14T10:09:59.668Z,3403
2018-07-14T10:11:01.042Z,3279
2018-07-14T10:12:02.444Z,3223
2018-07-14T10:13:03.877Z,3290
2018-07-14T10:14:05.292Z,3375
2018-07-14T10:15:06.721Z,3369
2018-07-14T10:16:08.208Z,3330
2018-07-14T10:17:09.583Z,3358
2018-07-14T10:18:10.981Z,3346
2018-07-14T10:19:12.365Z,3375
2018-07-14T10:20:13.823Z,3369
2018-07-14T10:21:15.257Z,3346
2018-07-14T10:22:16.696Z,3363
2018-07-14T10:23:18.016Z,3375
2018-07-14T10:24:19.380Z,3363
2018-07-14T10:25:20.895Z,3330
2018-07-14T10:26:22.041Z,3352
2018-07-14T10:27:23.393Z,3465
2018-07-14T10:28:24.835Z,3493
2018-07-14T10:29:26.301Z,3414
2018-07-14T10:30:27.740Z,3515
2018-07-14T10:31:29.261Z,3543
2018-07-14T10:32:30.662Z,3425
2018-07-14T10:33:32.186Z,3256
2018-07-14T10:35:13.943Z,3296
2018-07-14T10:36:15.288Z,3318
2018-07-14T10:37:16.737Z,3436
2018-07-14T10:38:18.085Z,3476
2018-07-14T10:39:19.438Z,3515
2018-07-14T10:40:20.817Z,3448
2018-07-14T10:41:22.178Z,3408
2018-07-14T10:42:23.657Z,3414
2018-07-14T10:43:24.899Z,3369
2018-07-14T10:44:26.236Z,3369
2018-07-14T10:45:27.603Z,3465
2018-07-14T10:46:28.967Z,3583
2018-07-14T10:47:30.323Z,3453
2018-07-14T10:48:31.679Z,3397
2018-07-14T10:49:33.046Z,3453
2018-07-14T10:50:34.448Z,3538
2018-07-14T10:51:35.859Z,3493
2018-07-14T10:52:37.287Z,3330
2018-07-14T10:53:38.796Z,3279
2018-07-14T10:54:40.196Z,3465
2018-07-14T10:55:41.540Z,3566
2018-07-14T10:56:42.909Z,3515
2018-07-14T10:57:44.259Z,3594
2018-07-14T10:58:45.617Z,3577
2018-07-14T10:59:46.991Z,3521
2018-07-14T11:00:48.344Z,3673
2018-07-14T11:01:49.702Z,3549
2018-07-14T11:02:51.038Z,3448
2018-07-14T11:03:52.401Z,3555
2018-07-14T11:04:53.742Z,3543
2018-07-14T11:05:55.091Z,3470
2018-07-14T11:06:56.494Z,3526
2018-07-14T11:07:57.881Z,3594
2018-07-14T11:08:59.247Z,3667
2018-07-14T11:10:00.608Z,3560
2018-07-14T11:11:01.948Z,3543
2018-07-14T11:12:03.374Z,3600
2018-07-14T11:13:04.692Z,3600
2018-07-14T11:14:06.037Z,3583
2018-07-14T11:15:07.412Z,3555
2018-07-14T11:16:08.763Z,3436
2018-07-14T11:17:10.117Z,3577
2018-07-14T11:18:11.466Z,3639
2018-07-14T11:19:12.811Z,3560
2018-07-14T11:20:14.159Z,3571
2018-07-14T11:21:15.522Z,3633
2018-07-14T11:22:16.883Z,3661
2018-07-14T11:23:18.239Z,3718
2018-07-14T11:24:19.578Z,3645
2018-07-14T11:25:20.924Z,3639
2018-07-14T11:26:22.277Z,3746
2018-07-14T11:27:23.632Z,3645
2018-07-14T11:28:24.982Z,3538
2018-07-14T11:29:26.350Z,3628
2018-07-14T11:30:27.703Z,3594
2018-07-14T11:31:29.110Z,3515
2018-07-14T11:32:30.485Z,3594
2018-07-14T11:33:31.832Z,3650
2018-07-14T11:34:33.239Z,3521
2018-07-14T11:35:34.527Z,3448
2018-07-14T11:36:35.894Z,3493
2018-07-14T11:37:37.250Z,3476
2018-07-14T11:38:38.589Z,3571
2018-07-14T11:39:39.952Z,3667
2018-07-14T11:40:41.293Z,3476
2018-07-14T11:41:42.670Z,3403
2018-07-14T11:42:44.033Z,3487
2018-07-14T11:43:45.432Z,3605
2018-07-14T11:44:46.792Z,3532
2018-07-14T11:45:48.132Z,3498
2018-07-14T11:46:49.489Z,3526
2018-07-14T11:47:50.904Z,3510
2018-07-14T11:48:52.209Z,3543
2018-07-14T11:49:53.588Z,3605
2018-07-14T11:50:54.935Z,3543
2018-07-14T11:51:56.283Z,3465
2018-07-14T11:52:57.663Z,3510
2018-07-14T11:53:59.009Z,3397
2018-07-14T11:55:00.365Z,3217
2018-07-14T11:56:01.709Z,1715
2018-07-14T11:57:03.052Z,2092
2018-07-14T11:58:04.469Z,3223
2018-07-14T11:59:05.964Z,3465
2018-07-14T12:00:07.464Z,3588
2018-07-14T12:01:08.850Z,3571
2018-07-14T12:02:10.223Z,3538
2018-07-14T12:03:11.574Z,3543
2018-07-14T12:04:12.934Z,3560
2018-07-14T12:05:14.302Z,3639
2018-07-14T12:06:15.679Z,3555
2018-07-14T12:07:17.059Z,3549
2018-07-14T12:08:18.428Z,3566
2018-07-14T12:09:19.825Z,3650
2018-07-14T12:10:21.186Z,3510
2018-07-14T12:11:22.522Z,3476
2018-07-14T12:12:23.883Z,3504
2018-07-14T12:13:25.300Z,3403
2018-07-14T12:14:26.596Z,3442
2018-07-14T12:15:27.939Z,3510
2018-07-14T12:16:29.297Z,3386
2018-07-14T12:17:30.675Z,3408
2018-07-14T12:18:32.049Z,3403
2018-07-14T12:19:33.428Z,3363
2018-07-14T12:20:34.783Z,3363
2018-07-14T12:21:36.356Z,3341
2018-07-14T12:22:37.759Z,3301
2018-07-14T12:23:39.121Z,3780
2018-07-14T12:24:40.465Z,3931
2018-07-14T12:25:41.823Z,3470
2018-07-14T12:26:44.140Z,3476
2018-07-14T12:27:45.454Z,3397
2018-07-14T12:28:47.003Z,3290
2018-07-14T12:29:48.383Z,3470
2018-07-14T12:30:49.692Z,3487
2018-07-14T12:31:51.065Z,3476
2018-07-14T12:32:52.436Z,3588
2018-07-14T12:33:53.786Z,3611
2018-07-14T12:34:55.193Z,3442
2018-07-14T12:35:56.600Z,3341
2018-07-14T12:36:58.010Z,3330
2018-07-14T12:37:59.376Z,3285
2018-07-14T12:39:00.779Z,3290
2018-07-14T12:40:02.140Z,3228
2018-07-14T12:41:03.531Z,3195
2018-07-14T12:42:04.913Z,3228
2018-07-14T12:43:06.291Z,3324
2018-07-14T12:44:07.660Z,3307
2018-07-14T12:45:09.033Z,3262
2018-07-14T12:46:10.413Z,3318
2018-07-14T12:47:11.771Z,3324
2018-07-14T12:48:13.233Z,3256
2018-07-14T12:49:14.609Z,2885
2018-07-14T12:50:16.046Z,2503
2018-07-14T12:51:17.394Z,2385
2018-07-14T12:52:18.915Z,2452
2018-07-14T12:53:20.343Z,2801
2018-07-14T12:54:21.803Z,3065
2018-07-14T12:55:23.274Z,3200
2018-07-14T12:56:24.758Z,3341
2018-07-14T12:57:26.267Z,3307
2018-07-14T12:58:27.730Z,3183
2018-07-14T12:59:29.212Z,3071
2018-07-14T13:00:30.606Z,3009
2018-07-14T13:01:32.048Z,2818
2018-07-14T13:02:33.513Z,2401
2018-07-14T13:03:34.861Z,1906
2018-07-14T13:04:36.230Z,1710
2018-07-14T13:05:37.590Z,1687
2018-07-14T13:06:39.052Z,1670
2018-07-14T13:07:40.335Z,1665
2018-07-14T13:08:41.726Z,1665
2018-07-14T13:09:43.962Z,1648
2018-07-14T13:10:44.430Z,1665
2018-07-14T13:11:45.890Z,1676
2018-07-14T13:12:47.248Z,1698
2018-07-14T13:13:48.618Z,1721
2018-07-14T13:14:49.959Z,1732
2018-07-14T13:15:51.344Z,1749
2018-07-14T13:16:52.699Z,1771
2018-07-14T13:17:54.049Z,1766
2018-07-14T13:18:55.420Z,1783
2018-07-14T13:19:56.784Z,1794
2018-07-14T13:20:58.166Z,1822
2018-07-14T13:21:59.550Z,1845
2018-07-14T13:23:00.897Z,1873
2018-07-14T13:24:02.260Z,1884
2018-07-14T13:25:03.661Z,1906
2018-07-14T13:26:05.005Z,1918
2018-07-14T13:27:06.390Z,1935
2018-07-14T13:28:07.765Z,1951
2018-07-14T13:29:09.128Z,1980
2018-07-14T13:30:10.563Z,1996
2018-07-14T13:31:11.866Z,2008
2018-07-14T13:32:14.251Z,2025
2018-07-14T13:33:15.696Z,2008
2018-07-14T13:34:17.121Z,2025
2018-07-14T13:35:18.510Z,2064
2018-07-14T13:36:19.960Z,2075
2018-07-14T13:37:21.296Z,2092
2018-07-14T13:38:22.736Z,2081
2018-07-14T13:39:24.104Z,2064
2018-07-14T13:40:25.450Z,2047
2018-07-14T13:41:26.817Z,2047
2018-07-14T13:42:28.184Z,2053
2018-07-14T13:43:29.536Z,2030
2018-07-14T13:44:30.889Z,2036
2018-07-14T13:45:32.252Z,2047
2018-07-14T13:46:33.616Z,2002
2018-07-14T13:47:35.000Z,1968
2018-07-14T13:48:36.381Z,1951
2018-07-14T13:49:37.749Z,1957
2018-07-14T13:50:39.120Z,787
2018-07-14T13:51:40.475Z,759
2018-07-14T13:52:41.833Z,765
2018-07-14T13:53:44.040Z,787
2018-07-14T13:55:25.860Z,1788
2018-07-14T13:56:27.204Z,1749
2018-07-14T13:57:28.569Z,1828
2018-07-14T13:58:29.915Z,1861
2018-07-14T13:59:31.254Z,1845
2018-07-14T14:00:32.599Z,1788
2018-07-14T14:01:33.955Z,1760
2018-07-14T14:02:35.302Z,1726
2018-07-14T14:03:36.651Z,1732
2018-07-14T14:04:37.994Z,1738
2018-07-14T14:05:39.353Z,1743
2018-07-14T14:06:40.723Z,1738